sensor_id;sensor_type;location;lat;lon;timestamp;temperature;humidity
21734;DHT22;11029;47.820;10.534;2023-12-20T00:01:46;4.40;58.30
21734;DHT22;11029;47.820;10.534;2023-12-20T00:04:32;4.30;58.10
21734;DHT22;11029;47.820;10.534;2023-12-20T00:07:18;4.30;58.30
21734;DHT22;11029;47.820;10.534;2023-12-20T00:10:04;4.20;58.90
21734;DHT22;11029;47.820;10.534;2023-12-20T00:12:50;4.10;59.80
21734;DHT22;11029;47.820;10.534;2023-12-20T00:15:36;4.00;60.50
21734;DHT22;11029;47.820;10.534;2023-12-20T00:18:21;3.90;61.10
21734;DHT22;11029;47.820;10.534;2023-12-20T00:21:07;3.80;61.60
21734;DHT22;11029;47.820;10.534;2023-12-20T00:23:52;3.70;61.90
21734;DHT22;11029;47.820;10.534;2023-12-20T00:26:38;3.70;62.20
21734;DHT22;11029;47.820;10.534;2023-12-20T00:29:23;3.70;62.40
21734;DHT22;11029;47.820;10.534;2023-12-20T00:32:09;3.70;62.90
21734;DHT22;11029;47.820;10.534;2023-12-20T00:34:55;3.60;63.00
21734;DHT22;11029;47.820;10.534;2023-12-20T00:37:44;3.60;63.20
21734;DHT22;11029;47.820;10.534;2023-12-20T00:40:29;3.60;63.20
21734;DHT22;11029;47.820;10.534;2023-12-20T00:43:15;3.60;63.50
21734;DHT22;11029;47.820;10.534;2023-12-20T00:46:00;3.50;63.70
21734;DHT22;11029;47.820;10.534;2023-12-20T00:48:46;3.50;64.20
21734;DHT22;11029;47.820;10.534;2023-12-20T00:51:31;3.50;64.60
21734;DHT22;11029;47.820;10.534;2023-12-20T00:54:17;3.40;64.40
21734;DHT22;11029;47.820;10.534;2023-12-20T00:57:03;3.50;64.80
21734;DHT22;11029;47.820;10.534;2023-12-20T00:59:48;3.50;64.60
21734;DHT22;11029;47.820;10.534;2023-12-20T01:02:34;3.60;64.10
21734;DHT22;11029;47.820;10.534;2023-12-20T01:05:21;3.70;64.10
21734;DHT22;11029;47.820;10.534;2023-12-20T01:08:08;3.80;64.50
21734;DHT22;11029;47.820;10.534;2023-12-20T01:10:54;3.80;64.30
21734;DHT22;11029;47.820;10.534;2023-12-20T01:13:39;3.80;65.00
21734;DHT22;11029;47.820;10.534;2023-12-20T01:16:25;3.80;65.00
21734;DHT22;11029;47.820;10.534;2023-12-20T01:19:11;3.70;65.80
21734;DHT22;11029;47.820;10.534;2023-12-20T01:21:56;3.70;66.50
21734;DHT22;11029;47.820;10.534;2023-12-20T01:24:42;3.70;67.60
21734;DHT22;11029;47.820;10.534;2023-12-20T01:27:28;3.60;68.40
21734;DHT22;11029;47.820;10.534;2023-12-20T01:30:14;3.60;69.00
21734;DHT22;11029;47.820;10.534;2023-12-20T01:33:01;3.60;69.30
21734;DHT22;11029;47.820;10.534;2023-12-20T01:35:46;3.60;70.40
21734;DHT22;11029;47.820;10.534;2023-12-20T01:38:32;3.60;71.20
21734;DHT22;11029;47.820;10.534;2023-12-20T01:41:17;3.50;71.80
21734;DHT22;11029;47.820;10.534;2023-12-20T01:44:03;3.50;72.60
21734;DHT22;11029;47.820;10.534;2023-12-20T01:46:49;3.50;72.10
21734;DHT22;11029;47.820;10.534;2023-12-20T01:49:35;3.50;72.60
21734;DHT22;11029;47.820;10.534;2023-12-20T01:52:21;3.60;72.30
21734;DHT22;11029;47.820;10.534;2023-12-20T01:55:07;3.60;72.60
21734;DHT22;11029;47.820;10.534;2023-12-20T01:57:59;3.60;73.10
21734;DHT22;11029;47.820;10.534;2023-12-20T02:00:45;3.60;73.20
21734;DHT22;11029;47.820;10.534;2023-12-20T02:03:31;3.70;72.90
21734;DHT22;11029;47.820;10.534;2023-12-20T02:06:18;3.70;72.90
21734;DHT22;11029;47.820;10.534;2023-12-20T02:09:07;3.70;73.60
21734;DHT22;11029;47.820;10.534;2023-12-20T02:11:52;3.70;73.20
21734;DHT22;11029;47.820;10.534;2023-12-20T02:14:39;3.70;73.20
21734;DHT22;11029;47.820;10.534;2023-12-20T02:17:25;3.70;73.30
21734;DHT22;11029;47.820;10.534;2023-12-20T02:20:11;3.70;73.60
21734;DHT22;11029;47.820;10.534;2023-12-20T02:22:57;3.70;73.40
21734;DHT22;11029;47.820;10.534;2023-12-20T02:25:42;3.70;73.20
21734;DHT22;11029;47.820;10.534;2023-12-20T02:28:28;3.60;73.20
21734;DHT22;11029;47.820;10.534;2023-12-20T02:31:14;3.40;73.60
21734;DHT22;11029;47.820;10.534;2023-12-20T02:33:59;3.40;74.30
21734;DHT22;11029;47.820;10.534;2023-12-20T02:36:45;3.30;75.10
21734;DHT22;11029;47.820;10.534;2023-12-20T02:39:31;3.40;76.00
21734;DHT22;11029;47.820;10.534;2023-12-20T02:42:16;3.40;76.60
21734;DHT22;11029;47.820;10.534;2023-12-20T02:45:02;3.40;76.60
21734;DHT22;11029;47.820;10.534;2023-12-20T02:47:48;3.40;76.40
21734;DHT22;11029;47.820;10.534;2023-12-20T02:50:34;3.50;76.30
21734;DHT22;11029;47.820;10.534;2023-12-20T02:53:20;3.50;76.60
21734;DHT22;11029;47.820;10.534;2023-12-20T02:56:05;3.50;76.60
21734;DHT22;11029;47.820;10.534;2023-12-20T02:58:51;3.60;75.40
21734;DHT22;11029;47.820;10.534;2023-12-20T03:01:43;3.60;75.40
21734;DHT22;11029;47.820;10.534;2023-12-20T03:04:29;3.60;75.30
21734;DHT22;11029;47.820;10.534;2023-12-20T03:07:15;3.60;74.90
21734;DHT22;11029;47.820;10.534;2023-12-20T03:10:01;3.70;73.80
21734;DHT22;11029;47.820;10.534;2023-12-20T03:13:04;3.60;73.60
21734;DHT22;11029;47.820;10.534;2023-12-20T03:15:50;3.70;73.20
21734;DHT22;11029;47.820;10.534;2023-12-20T03:18:35;3.60;73.30
21734;DHT22;11029;47.820;10.534;2023-12-20T03:21:21;3.70;73.20
21734;DHT22;11029;47.820;10.534;2023-12-20T03:24:06;3.70;73.80
21734;DHT22;11029;47.820;10.534;2023-12-20T03:26:52;3.80;74.20
21734;DHT22;11029;47.820;10.534;2023-12-20T03:29:38;3.80;74.40
21734;DHT22;11029;47.820;10.534;2023-12-20T03:32:23;3.70;76.50
21734;DHT22;11029;47.820;10.534;2023-12-20T03:35:09;3.60;77.70
21734;DHT22;11029;47.820;10.534;2023-12-20T03:37:55;3.60;79.30
21734;DHT22;11029;47.820;10.534;2023-12-20T03:40:40;3.60;79.80
21734;DHT22;11029;47.820;10.534;2023-12-20T03:43:26;3.60;81.30
21734;DHT22;11029;47.820;10.534;2023-12-20T03:46:12;3.60;83.20
21734;DHT22;11029;47.820;10.534;2023-12-20T03:48:58;3.60;84.70
21734;DHT22;11029;47.820;10.534;2023-12-20T03:51:46;3.70;84.90
21734;DHT22;11029;47.820;10.534;2023-12-20T03:54:32;3.80;85.10
21734;DHT22;11029;47.820;10.534;2023-12-20T03:57:18;3.80;84.90
21734;DHT22;11029;47.820;10.534;2023-12-20T04:00:03;3.70;85.30
21734;DHT22;11029;47.820;10.534;2023-12-20T04:02:56;3.80;85.30
21734;DHT22;11029;47.820;10.534;2023-12-20T04:05:41;3.70;84.80
21734;DHT22;11029;47.820;10.534;2023-12-20T04:08:27;3.70;85.00
21734;DHT22;11029;47.820;10.534;2023-12-20T04:11:12;3.60;85.10
21734;DHT22;11029;47.820;10.534;2023-12-20T04:13:58;3.60;85.40
21734;DHT22;11029;47.820;10.534;2023-12-20T04:16:43;3.60;85.10
21734;DHT22;11029;47.820;10.534;2023-12-20T04:19:32;3.50;85.20
21734;DHT22;11029;47.820;10.534;2023-12-20T04:22:18;3.50;85.00
21734;DHT22;11029;47.820;10.534;2023-12-20T04:25:05;3.50;85.40
21734;DHT22;11029;47.820;10.534;2023-12-20T04:27:51;3.50;85.50
21734;DHT22;11029;47.820;10.534;2023-12-20T04:30:37;3.50;85.20
21734;DHT22;11029;47.820;10.534;2023-12-20T04:33:22;3.50;85.60
21734;DHT22;11029;47.820;10.534;2023-12-20T04:36:08;3.50;85.70
21734;DHT22;11029;47.820;10.534;2023-12-20T04:38:54;3.50;85.90
21734;DHT22;11029;47.820;10.534;2023-12-20T04:41:40;3.50;85.40
21734;DHT22;11029;47.820;10.534;2023-12-20T04:44:25;3.50;85.30
21734;DHT22;11029;47.820;10.534;2023-12-20T04:47:12;3.50;85.20
21734;DHT22;11029;47.820;10.534;2023-12-20T04:49:57;3.60;85.30
21734;DHT22;11029;47.820;10.534;2023-12-20T04:52:44;3.60;85.40
21734;DHT22;11029;47.820;10.534;2023-12-20T04:55:29;3.60;85.60
21734;DHT22;11029;47.820;10.534;2023-12-20T04:58:15;3.60;85.60
21734;DHT22;11029;47.820;10.534;2023-12-20T05:01:01;3.50;85.90
21734;DHT22;11029;47.820;10.534;2023-12-20T05:03:47;3.50;85.80
21734;DHT22;11029;47.820;10.534;2023-12-20T05:06:33;3.40;86.00
21734;DHT22;11029;47.820;10.534;2023-12-20T05:09:19;3.40;86.00
21734;DHT22;11029;47.820;10.534;2023-12-20T05:12:05;3.30;86.00
21734;DHT22;11029;47.820;10.534;2023-12-20T05:14:52;3.20;86.10
21734;DHT22;11029;47.820;10.534;2023-12-20T05:17:37;3.10;85.80
21734;DHT22;11029;47.820;10.534;2023-12-20T05:20:23;2.90;86.50
21734;DHT22;11029;47.820;10.534;2023-12-20T05:23:09;2.80;86.60
21734;DHT22;11029;47.820;10.534;2023-12-20T05:25:55;2.70;86.40
21734;DHT22;11029;47.820;10.534;2023-12-20T05:28:40;2.70;86.80
21734;DHT22;11029;47.820;10.534;2023-12-20T05:31:26;2.60;87.00
21734;DHT22;11029;47.820;10.534;2023-12-20T05:34:12;2.60;87.00
21734;DHT22;11029;47.820;10.534;2023-12-20T05:36:58;2.50;87.30
21734;DHT22;11029;47.820;10.534;2023-12-20T05:39:44;2.50;86.90
21734;DHT22;11029;47.820;10.534;2023-12-20T05:42:30;2.40;87.20
21734;DHT22;11029;47.820;10.534;2023-12-20T05:45:15;2.40;87.40
21734;DHT22;11029;47.820;10.534;2023-12-20T05:48:01;2.30;87.60
21734;DHT22;11029;47.820;10.534;2023-12-20T05:50:46;2.20;87.00
21734;DHT22;11029;47.820;10.534;2023-12-20T05:53:32;2.20;87.70
21734;DHT22;11029;47.820;10.534;2023-12-20T05:56:17;2.10;87.50
21734;DHT22;11029;47.820;10.534;2023-12-20T05:59:03;2.10;87.10
21734;DHT22;11029;47.820;10.534;2023-12-20T06:01:48;2.10;87.30
21734;DHT22;11029;47.820;10.534;2023-12-20T06:04:34;2.00;87.20
21734;DHT22;11029;47.820;10.534;2023-12-20T06:07:20;1.90;87.40
21734;DHT22;11029;47.820;10.534;2023-12-20T06:10:06;1.90;87.30
21734;DHT22;11029;47.820;10.534;2023-12-20T06:12:52;1.90;87.40
21734;DHT22;11029;47.820;10.534;2023-12-20T06:15:38;1.90;87.40
21734;DHT22;11029;47.820;10.534;2023-12-20T06:18:23;1.90;87.80
21734;DHT22;11029;47.820;10.534;2023-12-20T06:21:10;1.80;87.30
21734;DHT22;11029;47.820;10.534;2023-12-20T06:23:59;1.80;87.50
21734;DHT22;11029;47.820;10.534;2023-12-20T06:26:45;1.70;87.70
21734;DHT22;11029;47.820;10.534;2023-12-20T06:29:30;1.70;87.60
21734;DHT22;11029;47.820;10.534;2023-12-20T06:32:16;1.60;87.70
21734;DHT22;11029;47.820;10.534;2023-12-20T06:35:02;1.60;87.70
21734;DHT22;11029;47.820;10.534;2023-12-20T06:37:48;1.50;88.30
21734;DHT22;11029;47.820;10.534;2023-12-20T06:40:33;1.50;88.30
21734;DHT22;11029;47.820;10.534;2023-12-20T06:43:19;1.40;88.40
21734;DHT22;11029;47.820;10.534;2023-12-20T06:46:24;1.40;88.60
21734;DHT22;11029;47.820;10.534;2023-12-20T06:49:11;1.40;88.70
21734;DHT22;11029;47.820;10.534;2023-12-20T06:51:57;1.40;88.70
21734;DHT22;11029;47.820;10.534;2023-12-20T06:54:42;1.40;88.90
21734;DHT22;11029;47.820;10.534;2023-12-20T06:57:29;1.40;89.00
21734;DHT22;11029;47.820;10.534;2023-12-20T07:00:15;1.30;89.30
21734;DHT22;11029;47.820;10.534;2023-12-20T07:03:01;1.40;89.40
21734;DHT22;11029;47.820;10.534;2023-12-20T07:05:47;1.30;89.70
21734;DHT22;11029;47.820;10.534;2023-12-20T07:08:33;1.40;89.60
21734;DHT22;11029;47.820;10.534;2023-12-20T07:11:18;1.30;89.70
21734;DHT22;11029;47.820;10.534;2023-12-20T07:14:04;1.40;89.60
21734;DHT22;11029;47.820;10.534;2023-12-20T07:16:49;1.30;89.80
21734;DHT22;11029;47.820;10.534;2023-12-20T07:19:35;1.30;90.10
21734;DHT22;11029;47.820;10.534;2023-12-20T07:22:20;1.40;89.70
21734;DHT22;11029;47.820;10.534;2023-12-20T07:25:07;1.40;89.50
21734;DHT22;11029;47.820;10.534;2023-12-20T07:27:53;1.40;89.70
21734;DHT22;11029;47.820;10.534;2023-12-20T07:30:39;1.40;89.60
21734;DHT22;11029;47.820;10.534;2023-12-20T07:33:25;1.30;89.80
21734;DHT22;11029;47.820;10.534;2023-12-20T07:36:12;1.30;90.10
21734;DHT22;11029;47.820;10.534;2023-12-20T07:38:57;1.30;89.90
21734;DHT22;11029;47.820;10.534;2023-12-20T07:41:43;1.40;89.90
21734;DHT22;11029;47.820;10.534;2023-12-20T07:44:31;1.40;89.90
21734;DHT22;11029;47.820;10.534;2023-12-20T07:47:16;1.40;90.00
21734;DHT22;11029;47.820;10.534;2023-12-20T07:50:06;1.50;89.60
21734;DHT22;11029;47.820;10.534;2023-12-20T07:52:52;1.50;89.50
21734;DHT22;11029;47.820;10.534;2023-12-20T07:55:39;1.50;89.60
21734;DHT22;11029;47.820;10.534;2023-12-20T07:58:24;1.50;89.70
21734;DHT22;11029;47.820;10.534;2023-12-20T08:01:29;1.50;90.00
21734;DHT22;11029;47.820;10.534;2023-12-20T08:04:14;1.50;89.50
21734;DHT22;11029;47.820;10.534;2023-12-20T08:07:00;1.60;89.90
21734;DHT22;11029;47.820;10.534;2023-12-20T08:09:46;1.60;89.70
21734;DHT22;11029;47.820;10.534;2023-12-20T08:12:31;1.60;89.90
21734;DHT22;11029;47.820;10.534;2023-12-20T08:15:18;1.60;90.10
21734;DHT22;11029;47.820;10.534;2023-12-20T08:18:04;1.60;89.90
21734;DHT22;11029;47.820;10.534;2023-12-20T08:20:50;1.70;89.90
21734;DHT22;11029;47.820;10.534;2023-12-20T08:23:38;1.70;90.10
21734;DHT22;11029;47.820;10.534;2023-12-20T08:26:23;1.80;89.80
21734;DHT22;11029;47.820;10.534;2023-12-20T08:29:09;1.70;89.90
21734;DHT22;11029;47.820;10.534;2023-12-20T08:31:56;1.70;90.30
21734;DHT22;11029;47.820;10.534;2023-12-20T08:34:42;1.80;90.30
21734;DHT22;11029;47.820;10.534;2023-12-20T08:37:27;1.80;89.80
21734;DHT22;11029;47.820;10.534;2023-12-20T08:40:13;1.80;89.90
21734;DHT22;11029;47.820;10.534;2023-12-20T08:43:04;1.80;90.30
21734;DHT22;11029;47.820;10.534;2023-12-20T08:45:49;1.80;90.40
21734;DHT22;11029;47.820;10.534;2023-12-20T08:48:35;1.90;90.30
21734;DHT22;11029;47.820;10.534;2023-12-20T08:51:21;1.90;90.30
21734;DHT22;11029;47.820;10.534;2023-12-20T08:54:09;2.00;90.20
21734;DHT22;11029;47.820;10.534;2023-12-20T08:56:55;2.10;90.30
21734;DHT22;11029;47.820;10.534;2023-12-20T08:59:40;2.00;89.90
21734;DHT22;11029;47.820;10.534;2023-12-20T09:02:26;2.10;90.10
21734;DHT22;11029;47.820;10.534;2023-12-20T09:05:11;2.10;89.90
21734;DHT22;11029;47.820;10.534;2023-12-20T09:07:58;2.20;89.30
21734;DHT22;11029;47.820;10.534;2023-12-20T09:10:43;2.10;89.80
21734;DHT22;11029;47.820;10.534;2023-12-20T09:13:30;2.10;89.80
21734;DHT22;11029;47.820;10.534;2023-12-20T09:16:17;2.20;89.40
21734;DHT22;11029;47.820;10.534;2023-12-20T09:19:02;2.20;89.50
21734;DHT22;11029;47.820;10.534;2023-12-20T09:21:49;2.20;89.80
21734;DHT22;11029;47.820;10.534;2023-12-20T09:24:34;2.20;89.70
21734;DHT22;11029;47.820;10.534;2023-12-20T09:27:20;2.20;89.70
21734;DHT22;11029;47.820;10.534;2023-12-20T09:30:06;2.20;89.70
21734;DHT22;11029;47.820;10.534;2023-12-20T09:33:22;2.20;90.10
21734;DHT22;11029;47.820;10.534;2023-12-20T09:36:08;2.20;89.90
21734;DHT22;11029;47.820;10.534;2023-12-20T09:38:54;2.30;90.00
21734;DHT22;11029;47.820;10.534;2023-12-20T09:41:43;2.30;90.00
21734;DHT22;11029;47.820;10.534;2023-12-20T09:44:33;2.30;89.70
21734;DHT22;11029;47.820;10.534;2023-12-20T09:47:23;2.30;90.00
21734;DHT22;11029;47.820;10.534;2023-12-20T09:50:09;2.30;90.40
21734;DHT22;11029;47.820;10.534;2023-12-20T09:52:57;2.40;90.10
21734;DHT22;11029;47.820;10.534;2023-12-20T09:55:45;2.40;90.00
21734;DHT22;11029;47.820;10.534;2023-12-20T09:58:30;2.40;90.40
21734;DHT22;11029;47.820;10.534;2023-12-20T10:01:16;2.40;90.60
21734;DHT22;11029;47.820;10.534;2023-12-20T10:04:06;2.40;90.50
21734;DHT22;11029;47.820;10.534;2023-12-20T10:07:02;2.50;90.20
21734;DHT22;11029;47.820;10.534;2023-12-20T10:09:54;2.50;90.40
21734;DHT22;11029;47.820;10.534;2023-12-20T10:13:04;2.60;90.40
21734;DHT22;11029;47.820;10.534;2023-12-20T10:15:50;2.60;90.10
21734;DHT22;11029;47.820;10.534;2023-12-20T10:18:36;2.60;90.20
21734;DHT22;11029;47.820;10.534;2023-12-20T10:21:25;2.70;90.50
21734;DHT22;11029;47.820;10.534;2023-12-20T10:24:17;2.70;90.30
21734;DHT22;11029;47.820;10.534;2023-12-20T10:27:04;2.70;89.90
21734;DHT22;11029;47.820;10.534;2023-12-20T10:29:51;2.80;90.60
21734;DHT22;11029;47.820;10.534;2023-12-20T10:32:37;2.80;90.70
21734;DHT22;11029;47.820;10.534;2023-12-20T10:35:22;2.90;90.50
21734;DHT22;11029;47.820;10.534;2023-12-20T10:38:08;2.90;90.50
21734;DHT22;11029;47.820;10.534;2023-12-20T10:40:57;2.90;90.50
21734;DHT22;11029;47.820;10.534;2023-12-20T10:43:46;3.00;90.50
21734;DHT22;11029;47.820;10.534;2023-12-20T10:46:34;3.00;89.90
21734;DHT22;11029;47.820;10.534;2023-12-20T10:49:21;3.00;89.90
21734;DHT22;11029;47.820;10.534;2023-12-20T10:52:09;3.00;90.20
21734;DHT22;11029;47.820;10.534;2023-12-20T10:54:54;3.00;90.00
21734;DHT22;11029;47.820;10.534;2023-12-20T10:57:41;3.00;90.20
21734;DHT22;11029;47.820;10.534;2023-12-20T11:00:29;3.10;90.00
21734;DHT22;11029;47.820;10.534;2023-12-20T11:03:17;3.10;90.30
21734;DHT22;11029;47.820;10.534;2023-12-20T11:13:37;3.10;90.00
21734;DHT22;11029;47.820;10.534;2023-12-20T11:16:27;3.00;89.80
21734;DHT22;11029;47.820;10.534;2023-12-20T11:19:26;3.10;90.10
21734;DHT22;11029;47.820;10.534;2023-12-20T11:22:12;3.10;90.20
21734;DHT22;11029;47.820;10.534;2023-12-20T11:25:09;3.10;90.10
21734;DHT22;11029;47.820;10.534;2023-12-20T11:28:09;3.10;89.80
21734;DHT22;11029;47.820;10.534;2023-12-20T11:34:36;3.10;89.70
21734;DHT22;11029;47.820;10.534;2023-12-20T11:37:31;3.10;89.50
21734;DHT22;11029;47.820;10.534;2023-12-20T11:40:18;3.10;89.30
21734;DHT22;11029;47.820;10.534;2023-12-20T11:43:04;3.10;89.10
21734;DHT22;11029;47.820;10.534;2023-12-20T11:45:51;3.10;88.80
21734;DHT22;11029;47.820;10.534;2023-12-20T11:48:40;3.10;88.50
21734;DHT22;11029;47.820;10.534;2023-12-20T11:51:26;3.10;89.00
21734;DHT22;11029;47.820;10.534;2023-12-20T11:54:16;3.10;89.00
21734;DHT22;11029;47.820;10.534;2023-12-20T11:57:02;3.10;88.00
21734;DHT22;11029;47.820;10.534;2023-12-20T11:59:47;3.20;88.10
21734;DHT22;11029;47.820;10.534;2023-12-20T12:02:33;3.20;88.10
21734;DHT22;11029;47.820;10.534;2023-12-20T12:09:21;3.30;87.00
21734;DHT22;11029;47.820;10.534;2023-12-20T12:12:07;3.30;86.50
21734;DHT22;11029;47.820;10.534;2023-12-20T12:15:23;3.30;87.10
21734;DHT22;11029;47.820;10.534;2023-12-20T12:18:10;3.30;87.00
21734;DHT22;11029;47.820;10.534;2023-12-20T12:21:02;3.20;86.50
21734;DHT22;11029;47.820;10.534;2023-12-20T12:24:27;3.20;87.20
21734;DHT22;11029;47.820;10.534;2023-12-20T12:27:13;3.20;86.80
21734;DHT22;11029;47.820;10.534;2023-12-20T12:30:24;3.20;86.80
21734;DHT22;11029;47.820;10.534;2023-12-20T12:33:13;3.20;86.30
21734;DHT22;11029;47.820;10.534;2023-12-20T12:36:26;3.20;84.90
21734;DHT22;11029;47.820;10.534;2023-12-20T12:39:13;3.20;84.70
21734;DHT22;11029;47.820;10.534;2023-12-20T12:42:00;3.20;84.20
21734;DHT22;11029;47.820;10.534;2023-12-20T12:44:45;3.20;84.60
21734;DHT22;11029;47.820;10.534;2023-12-20T12:47:31;3.20;84.50
21734;DHT22;11029;47.820;10.534;2023-12-20T12:50:17;3.20;85.10
21734;DHT22;11029;47.820;10.534;2023-12-20T12:53:03;3.20;85.30
21734;DHT22;11029;47.820;10.534;2023-12-20T12:59:29;3.20;86.00
21734;DHT22;11029;47.820;10.534;2023-12-20T13:02:14;3.20;85.60
21734;DHT22;11029;47.820;10.534;2023-12-20T13:05:00;3.20;86.00
21734;DHT22;11029;47.820;10.534;2023-12-20T13:07:48;3.20;85.90
21734;DHT22;11029;47.820;10.534;2023-12-20T13:10:39;3.30;85.90
21734;DHT22;11029;47.820;10.534;2023-12-20T13:13:30;3.20;86.00
21734;DHT22;11029;47.820;10.534;2023-12-20T13:16:16;3.30;85.40
21734;DHT22;11029;47.820;10.534;2023-12-20T13:19:02;3.30;85.50
21734;DHT22;11029;47.820;10.534;2023-12-20T13:21:48;3.30;86.20
21734;DHT22;11029;47.820;10.534;2023-12-20T13:24:34;3.20;86.30
21734;DHT22;11029;47.820;10.534;2023-12-20T13:27:20;3.30;86.10
21734;DHT22;11029;47.820;10.534;2023-12-20T13:30:36;3.30;85.90
21734;DHT22;11029;47.820;10.534;2023-12-20T13:33:22;3.30;86.10
21734;DHT22;11029;47.820;10.534;2023-12-20T13:36:07;3.30;86.30
21734;DHT22;11029;47.820;10.534;2023-12-20T13:38:54;3.40;86.40
21734;DHT22;11029;47.820;10.534;2023-12-20T13:41:43;3.40;86.10
21734;DHT22;11029;47.820;10.534;2023-12-20T13:44:29;3.40;85.60
21734;DHT22;11029;47.820;10.534;2023-12-20T13:47:16;3.40;85.60
21734;DHT22;11029;47.820;10.534;2023-12-20T13:50:32;3.40;85.80
21734;DHT22;11029;47.820;10.534;2023-12-20T13:53:17;3.40;85.80
21734;DHT22;11029;47.820;10.534;2023-12-20T13:56:04;3.30;85.80
21734;DHT22;11029;47.820;10.534;2023-12-20T13:58:50;3.40;85.90
21734;DHT22;11029;47.820;10.534;2023-12-20T14:01:37;3.40;86.10
21734;DHT22;11029;47.820;10.534;2023-12-20T14:04:23;3.30;85.80
21734;DHT22;11029;47.820;10.534;2023-12-20T14:07:27;3.30;86.10
21734;DHT22;11029;47.820;10.534;2023-12-20T14:10:15;3.30;86.00
21734;DHT22;11029;47.820;10.534;2023-12-20T14:13:01;3.30;86.50
21734;DHT22;11029;47.820;10.534;2023-12-20T14:15:47;3.30;87.00
21734;DHT22;11029;47.820;10.534;2023-12-20T14:18:37;3.20;86.80
21734;DHT22;11029;47.820;10.534;2023-12-20T14:21:22;3.20;86.80
21734;DHT22;11029;47.820;10.534;2023-12-20T14:24:09;3.20;87.20
21734;DHT22;11029;47.820;10.534;2023-12-20T14:26:55;3.10;86.90
21734;DHT22;11029;47.820;10.534;2023-12-20T14:29:40;3.00;86.80
21734;DHT22;11029;47.820;10.534;2023-12-20T14:32:26;3.00;87.40
21734;DHT22;11029;47.820;10.534;2023-12-20T14:35:13;3.00;87.30
21734;DHT22;11029;47.820;10.534;2023-12-20T14:37:59;2.80;85.60
21734;DHT22;11029;47.820;10.534;2023-12-20T14:40:45;2.70;85.30
21734;DHT22;11029;47.820;10.534;2023-12-20T14:43:31;2.60;85.50
21734;DHT22;11029;47.820;10.534;2023-12-20T14:46:17;2.50;86.00
21734;DHT22;11029;47.820;10.534;2023-12-20T14:49:02;2.50;86.40
21734;DHT22;11029;47.820;10.534;2023-12-20T14:51:48;2.50;86.70
21734;DHT22;11029;47.820;10.534;2023-12-20T14:54:39;2.40;86.80
21734;DHT22;11029;47.820;10.534;2023-12-20T14:57:27;2.30;86.80
21734;DHT22;11029;47.820;10.534;2023-12-20T15:00:16;2.20;87.30
21734;DHT22;11029;47.820;10.534;2023-12-20T15:03:03;2.10;87.80
21734;DHT22;11029;47.820;10.534;2023-12-20T15:05:50;2.00;88.40
21734;DHT22;11029;47.820;10.534;2023-12-20T15:08:36;2.00;88.90
21734;DHT22;11029;47.820;10.534;2023-12-20T15:11:21;2.00;88.80
21734;DHT22;11029;47.820;10.534;2023-12-20T15:14:07;2.00;89.30
21734;DHT22;11029;47.820;10.534;2023-12-20T15:16:52;2.00;89.50
21734;DHT22;11029;47.820;10.534;2023-12-20T15:19:38;2.10;89.60
21734;DHT22;11029;47.820;10.534;2023-12-20T15:22:24;2.10;89.40
21734;DHT22;11029;47.820;10.534;2023-12-20T15:25:11;2.00;89.90
21734;DHT22;11029;47.820;10.534;2023-12-20T15:27:58;2.10;90.10
21734;DHT22;11029;47.820;10.534;2023-12-20T15:30:44;2.20;90.10
21734;DHT22;11029;47.820;10.534;2023-12-20T15:33:31;2.20;89.80
21734;DHT22;11029;47.820;10.534;2023-12-20T15:36:16;2.10;89.00
21734;DHT22;11029;47.820;10.534;2023-12-20T15:39:02;2.20;88.80
21734;DHT22;11029;47.820;10.534;2023-12-20T15:41:52;2.20;88.10
21734;DHT22;11029;47.820;10.534;2023-12-20T15:44:42;2.10;87.70
21734;DHT22;11029;47.820;10.534;2023-12-20T15:47:33;2.10;87.90
21734;DHT22;11029;47.820;10.534;2023-12-20T15:50:21;2.10;86.70
21734;DHT22;11029;47.820;10.534;2023-12-20T15:53:07;2.00;86.10
21734;DHT22;11029;47.820;10.534;2023-12-20T15:55:53;1.90;84.80
21734;DHT22;11029;47.820;10.534;2023-12-20T15:58:39;1.90;84.10
21734;DHT22;11029;47.820;10.534;2023-12-20T16:01:25;1.90;83.70
21734;DHT22;11029;47.820;10.534;2023-12-20T16:04:11;1.90;83.60
21734;DHT22;11029;47.820;10.534;2023-12-20T16:06:57;1.80;83.90
21734;DHT22;11029;47.820;10.534;2023-12-20T16:09:43;1.80;83.80
21734;DHT22;11029;47.820;10.534;2023-12-20T16:12:28;1.70;84.00
21734;DHT22;11029;47.820;10.534;2023-12-20T16:15:13;1.60;84.10
21734;DHT22;11029;47.820;10.534;2023-12-20T16:17:59;1.60;84.30
21734;DHT22;11029;47.820;10.534;2023-12-20T16:20:44;1.50;84.30
21734;DHT22;11029;47.820;10.534;2023-12-20T16:23:30;1.50;84.20
21734;DHT22;11029;47.820;10.534;2023-12-20T16:26:16;1.60;84.40
21734;DHT22;11029;47.820;10.534;2023-12-20T16:29:01;1.50;83.70
21734;DHT22;11029;47.820;10.534;2023-12-20T16:31:47;1.50;83.70
21734;DHT22;11029;47.820;10.534;2023-12-20T16:34:33;1.40;82.80
21734;DHT22;11029;47.820;10.534;2023-12-20T16:37:18;1.50;82.40
21734;DHT22;11029;47.820;10.534;2023-12-20T16:40:05;1.50;81.60
21734;DHT22;11029;47.820;10.534;2023-12-20T16:42:52;1.50;81.70
21734;DHT22;11029;47.820;10.534;2023-12-20T16:45:38;1.40;80.80
21734;DHT22;11029;47.820;10.534;2023-12-20T16:48:23;1.40;80.60
21734;DHT22;11029;47.820;10.534;2023-12-20T16:51:09;1.40;80.90
21734;DHT22;11029;47.820;10.534;2023-12-20T16:53:55;1.40;81.30
21734;DHT22;11029;47.820;10.534;2023-12-20T16:56:40;1.40;81.70
21734;DHT22;11029;47.820;10.534;2023-12-20T16:59:26;1.40;81.90
21734;DHT22;11029;47.820;10.534;2023-12-20T17:02:11;1.40;82.00
21734;DHT22;11029;47.820;10.534;2023-12-20T17:04:57;1.50;82.50
21734;DHT22;11029;47.820;10.534;2023-12-20T17:07:43;1.30;83.60
21734;DHT22;11029;47.820;10.534;2023-12-20T17:10:30;1.30;83.90
21734;DHT22;11029;47.820;10.534;2023-12-20T17:13:16;1.30;83.70
21734;DHT22;11029;47.820;10.534;2023-12-20T17:16:02;1.30;83.00
21734;DHT22;11029;47.820;10.534;2023-12-20T17:18:48;1.30;82.80
21734;DHT22;11029;47.820;10.534;2023-12-20T17:21:35;1.20;82.10
21734;DHT22;11029;47.820;10.534;2023-12-20T17:24:21;1.20;81.90
21734;DHT22;11029;47.820;10.534;2023-12-20T17:27:06;1.20;81.80
21734;DHT22;11029;47.820;10.534;2023-12-20T17:29:56;1.20;81.50
21734;DHT22;11029;47.820;10.534;2023-12-20T17:32:42;1.20;81.90
21734;DHT22;11029;47.820;10.534;2023-12-20T17:35:34;1.10;81.30
21734;DHT22;11029;47.820;10.534;2023-12-20T17:38:22;1.10;81.70
21734;DHT22;11029;47.820;10.534;2023-12-20T17:41:08;1.10;81.30
21734;DHT22;11029;47.820;10.534;2023-12-20T17:43:58;1.10;81.10
21734;DHT22;11029;47.820;10.534;2023-12-20T17:46:44;1.10;81.00
21734;DHT22;11029;47.820;10.534;2023-12-20T17:49:30;1.00;80.70
21734;DHT22;11029;47.820;10.534;2023-12-20T17:53:02;1.00;80.40
21734;DHT22;11029;47.820;10.534;2023-12-20T17:55:50;1.10;79.90